createdAt,value
2022-08-09T00:04:10.778Z,56.54
2022-08-09T00:07:49.656Z,56.65
2022-08-09T00:12:03.536Z,57.34
2022-08-09T00:16:06.815Z,57.93
2022-08-09T00:20:12.075Z,57.84
2022-08-09T00:24:14.904Z,57.96
2022-08-09T00:28:17.097Z,58.20
2022-08-09T00:32:26.820Z,58.61
2022-08-09T00:36:30.672Z,58.70
2022-08-09T00:40:33.002Z,58.94
2022-08-09T00:44:40.541Z,58.82
2022-08-09T00:48:47.553Z,59.38
2022-08-09T00:52:55.098Z,59.61
2022-08-09T00:56:57.154Z,60.10
2022-08-09T01:00:59.402Z,60.63
2022-08-09T01:05:14.017Z,61.36
2022-08-09T01:09:48.477Z,61.25
2022-08-09T01:14:01.639Z,61.75
2022-08-09T01:18:14.202Z,61.67
2022-08-09T01:22:25.285Z,62.18
2022-08-09T01:26:54.726Z,62.16
2022-08-09T01:31:00.557Z,61.74
2022-08-09T01:35:29.123Z,62.36
2022-08-09T01:39:35.681Z,62.59
2022-08-09T01:43:47.962Z,63.05
2022-08-09T01:47:56.024Z,63.11
2022-08-09T01:52:07.301Z,62.74
2022-08-09T01:56:12.331Z,62.61
2022-08-09T02:00:34.974Z,62.79
2022-08-09T02:04:40.595Z,63.01
2022-08-09T02:08:57.997Z,63.26
2022-08-09T02:13:06.184Z,64.13
2022-08-09T02:17:29.365Z,64.69
2022-08-09T02:21:39.444Z,65.68
2022-08-09T02:25:52.467Z,66.00
2022-08-09T02:29:57.262Z,65.73
2022-08-09T02:34:41.345Z,66.15
2022-08-09T02:38:54.552Z,65.80
2022-08-09T02:43:03.013Z,65.98
2022-08-09T02:47:11.263Z,66.35
2022-08-09T02:51:18.317Z,66.28
2022-08-09T02:55:46.710Z,66.71
2022-08-09T03:00:20.801Z,66.82
2022-08-09T03:04:20.012Z,66.61
2022-08-09T03:08:45.626Z,67.15
2022-08-09T03:12:51.901Z,67.21
2022-08-09T03:16:55.449Z,67.62
2022-08-09T03:21:02.932Z,68.15
2022-08-09T03:25:26.731Z,68.50
2022-08-09T03:29:57.388Z,68.89
2022-08-09T03:33:58.798Z,68.52
2022-08-09T03:38:06.193Z,69.54
2022-08-09T03:42:12.845Z,69.78
2022-08-09T03:46:29.223Z,70.14
2022-08-09T03:50:35.043Z,70.45
2022-08-09T03:54:40.460Z,70.05
2022-08-09T03:58:43.209Z,70.23
2022-08-09T04:02:52.718Z,70.58
2022-08-09T04:06:58.082Z,70.77
2022-08-09T04:11:01.396Z,71.03
2022-08-09T04:15:11.442Z,70.65
2022-08-09T04:19:15.954Z,70.18
2022-08-09T04:23:32.637Z,70.20
2022-08-09T04:27:41.079Z,70.73
2022-08-09T04:31:47.721Z,71.19
2022-08-09T04:35:51.044Z,71.58
2022-08-09T04:39:54.863Z,71.90
2022-08-09T04:44:06.665Z,71.17
2022-08-09T04:48:16.997Z,67.72
2022-08-09T04:52:29.728Z,61.47
2022-08-09T04:56:37.326Z,56.77
2022-08-09T05:00:48.546Z,51.49
2022-08-09T05:04:55.158Z,48.26
2022-08-09T05:09:00.462Z,48.53
2022-08-09T05:13:06.009Z,50.97
2022-08-09T05:17:15.220Z,49.01
2022-08-09T05:21:46.610Z,43.77
2022-08-09T05:25:51.055Z,44.10
2022-08-09T05:29:53.338Z,46.58
2022-08-09T05:33:56.325Z,47.81
2022-08-09T05:37:59.223Z,50.01
2022-08-09T05:42:04.651Z,50.43
2022-08-09T05:46:08.057Z,42.27
2022-08-09T05:50:35.156Z,37.95
2022-08-09T05:54:35.144Z,36.30
2022-08-09T05:58:37.218Z,34.03
2022-08-09T06:02:46.535Z,31.21
2022-08-09T06:06:49.868Z,29.23
2022-08-09T06:10:54.957Z,28.06
2022-08-09T06:15:00.912Z,27.44
2022-08-09T06:19:04.365Z,26.01
2022-08-09T06:23:08.365Z,26.70
2022-08-09T06:27:15.793Z,25.71
2022-08-09T06:31:18.058Z,25.20
2022-08-09T06:35:55.746Z,24.82
2022-08-09T06:40:00.648Z,25.51
2022-08-09T06:44:06.038Z,25.01
2022-08-09T06:48:09.178Z,24.09
2022-08-09T06:52:12.280Z,24.57
2022-08-09T06:56:18.064Z,24.34
2022-08-09T07:00:50.248Z,24.46
2022-08-09T07:04:42.347Z,24.60
2022-08-09T07:08:44.966Z,25.00
2022-08-09T07:12:57.254Z,28.58
2022-08-09T07:17:00.000Z,32.97
2022-08-09T07:21:02.084Z,36.75
2022-08-09T07:25:05.520Z,38.97
2022-08-09T07:29:13.441Z,40.77
2022-08-09T07:33:16.702Z,41.89
2022-08-09T07:37:18.867Z,42.85
2022-08-09T07:41:24.333Z,43.20
2022-08-09T07:45:39.662Z,43.47
2022-08-09T07:50:04.278Z,44.53
2022-08-09T07:54:08.573Z,44.30
2022-08-09T07:58:14.333Z,44.28
2022-08-09T08:02:19.181Z,43.85
2022-08-09T08:06:21.644Z,44.60
2022-08-09T08:10:34.743Z,44.02
2022-08-09T08:14:37.805Z,43.80
2022-08-09T08:18:39.893Z,43.50
2022-08-09T08:22:48.581Z,43.03
2022-08-09T08:26:56.079Z,43.37
2022-08-09T08:30:58.646Z,43.09
2022-08-09T08:35:00.917Z,43.47
2022-08-09T08:39:04.270Z,43.56
2022-08-09T08:43:13.161Z,42.90
2022-08-09T08:47:15.929Z,42.71
2022-08-09T08:51:18.368Z,42.64
2022-08-09T08:55:23.567Z,42.59
2022-08-09T08:59:40.929Z,42.27
2022-08-09T09:03:50.495Z,41.81
2022-08-09T09:07:54.101Z,41.24
2022-08-09T09:11:59.231Z,40.92
2022-08-09T09:16:01.696Z,40.94
2022-08-09T09:20:11.009Z,40.82
2022-08-09T09:24:21.948Z,41.17
2022-08-09T09:29:01.669Z,41.42
2022-08-09T09:33:15.729Z,37.22
2022-08-09T09:37:31.806Z,36.04
2022-08-09T09:41:48.661Z,36.61
2022-08-09T09:45:57.516Z,35.91
2022-08-09T09:50:23.011Z,36.61
2022-08-09T09:54:25.536Z,34.65
2022-08-09T09:58:49.089Z,34.69
2022-08-09T10:02:51.266Z,35.42
2022-08-09T10:06:54.453Z,34.09
2022-08-09T10:10:56.633Z,34.29
2022-08-09T10:15:50.941Z,34.49
2022-08-09T10:19:39.477Z,32.88
2022-08-09T10:23:43.081Z,33.17
2022-08-09T10:27:56.887Z,33.49
2022-08-09T10:32:28.601Z,33.67
2022-08-09T10:36:22.843Z,33.36
2022-08-09T10:40:33.260Z,33.28
2022-08-09T10:44:39.925Z,33.27
2022-08-09T10:48:51.359Z,32.28
2022-08-09T10:53:10.364Z,32.45
2022-08-09T10:57:14.228Z,33.45
2022-08-09T11:03:11.318Z,32.62
2022-08-09T11:06:20.986Z,33.25
2022-08-09T11:10:47.303Z,32.88
2022-08-09T11:14:58.574Z,32.51
2022-08-09T11:19:01.179Z,32.67
2022-08-09T11:23:07.091Z,32.38
2022-08-09T11:28:03.745Z,31.99
2022-08-09T11:31:53.158Z,32.57
2022-08-09T11:35:59.500Z,32.55
2022-08-09T11:40:05.951Z,32.17
2022-08-09T11:44:08.669Z,32.24
2022-08-09T11:48:26.466Z,31.61
2022-08-09T11:52:59.155Z,31.43
2022-08-09T11:56:51.181Z,31.46
2022-08-09T12:01:08.987Z,31.40
2022-08-09T12:05:22.849Z,30.90
2022-08-09T12:09:27.996Z,31.43
2022-08-09T12:14:09.407Z,31.05
2022-08-09T12:18:01.538Z,30.73
2022-08-09T12:22:05.591Z,31.26
2022-08-09T12:26:07.670Z,30.98
2022-08-09T12:30:35.538Z,31.19
2022-08-09T12:34:42.213Z,30.79
2022-08-09T12:38:45.064Z,31.29
2022-08-09T12:42:50.489Z,31.08
2022-08-09T12:46:52.996Z,30.84
2022-08-09T12:50:55.927Z,30.66
2022-08-09T12:56:13.099Z,30.43
2022-08-09T12:59:57.626Z,29.90
2022-08-09T13:03:58.807Z,30.83
2022-08-09T13:08:17.377Z,30.58
2022-08-09T13:12:23.589Z,30.37
2022-08-09T13:16:45.899Z,30.00
2022-08-09T13:21:03.875Z,29.64
2022-08-09T13:25:11.860Z,29.89
2022-08-09T13:29:20.612Z,30.07
2022-08-09T13:33:52.688Z,29.98
2022-08-09T13:37:55.950Z,29.71
2022-08-09T13:42:12.232Z,29.46
2022-08-09T13:47:14.440Z,28.87
2022-08-09T13:50:36.907Z,28.90
2022-08-09T13:54:41.778Z,29.42
2022-08-09T13:58:53.248Z,29.61
2022-08-09T14:03:04.462Z,29.66
2022-08-09T14:07:17.665Z,29.47
2022-08-09T14:11:20.181Z,29.59
2022-08-09T14:16:09.710Z,28.65
2022-08-09T14:19:44.368Z,28.37
2022-08-09T14:23:54.725Z,28.65
2022-08-09T14:27:59.046Z,29.02
2022-08-09T14:32:05.837Z,29.25
2022-08-09T14:36:19.628Z,29.66
2022-08-09T14:40:38.883Z,29.10
2022-08-09T14:44:48.827Z,29.06
2022-08-09T14:49:02.797Z,29.29
2022-08-09T14:53:11.475Z,28.41
2022-08-09T14:57:14.871Z,28.11
2022-08-09T15:01:20.610Z,28.43
2022-08-09T15:05:22.795Z,27.73
2022-08-09T15:10:03.128Z,28.64
2022-08-09T15:13:48.156Z,29.19
2022-08-09T15:17:58.760Z,29.12
2022-08-09T15:22:02.557Z,29.32
2022-08-09T15:26:05.188Z,28.83
2022-08-09T15:30:48.280Z,28.32
2022-08-09T15:34:35.618Z,28.40
2022-08-09T15:38:37.884Z,28.60
2022-08-09T15:42:42.603Z,28.54
2022-08-09T15:46:44.793Z,28.76
2022-08-09T15:50:50.393Z,28.43
2022-08-09T15:54:52.488Z,28.82
2022-08-09T15:58:54.645Z,28.50
2022-08-09T16:02:57.085Z,29.01
2022-08-09T16:06:59.193Z,28.84
2022-08-09T16:11:04.203Z,28.62
2022-08-09T16:16:10.350Z,28.98
2022-08-09T16:19:36.659Z,28.67
2022-08-09T16:23:38.980Z,28.58
2022-08-09T16:27:41.086Z,28.84
2022-08-09T16:32:18.317Z,28.37
2022-08-09T16:36:13.130Z,28.43
2022-08-09T16:40:29.557Z,28.65
2022-08-09T16:44:42.058Z,28.76
2022-08-09T16:48:53.774Z,29.25
2022-08-09T16:53:02.026Z,29.23
2022-08-09T16:57:04.140Z,29.73
2022-08-09T17:01:07.392Z,29.50
2022-08-09T17:05:12.188Z,29.84
2022-08-09T17:09:45.403Z,29.53
2022-08-09T17:13:37.436Z,30.27
2022-08-09T17:17:50.326Z,30.41
2022-08-09T17:21:55.794Z,30.43
2022-08-09T17:26:01.751Z,30.56
2022-08-09T17:30:09.502Z,31.12
2022-08-09T17:34:59.748Z,31.15
2022-08-09T17:38:39.481Z,31.21
2022-08-09T17:42:43.244Z,31.44
2022-08-09T17:46:49.145Z,31.64
2022-08-09T17:50:59.327Z,31.58
2022-08-09T17:55:12.203Z,31.55
2022-08-09T17:59:16.922Z,31.55
2022-08-09T18:03:19.155Z,32.09
2022-08-09T18:07:24.089Z,32.09
2022-08-09T18:11:29.517Z,32.28
2022-08-09T18:16:05.433Z,32.78
2022-08-09T18:20:59.880Z,32.68
2022-08-09T18:24:15.852Z,33.00
2022-08-09T18:30:34.645Z,33.20
2022-08-09T18:32:40.012Z,33.70
2022-08-09T18:36:43.853Z,33.78
2022-08-09T18:40:53.427Z,34.03
2022-08-09T18:44:55.511Z,34.26
2022-08-09T18:49:02.065Z,34.61
2022-08-09T18:53:04.718Z,34.80
2022-08-09T18:57:15.578Z,34.94
2022-08-09T19:01:17.682Z,35.13
2022-08-09T19:05:41.379Z,35.57
2022-08-09T19:10:14.280Z,35.86
2022-08-09T19:14:07.745Z,36.18
2022-08-09T19:18:17.105Z,36.79
2022-08-09T19:22:35.182Z,36.92
2022-08-09T19:26:38.370Z,37.47
2022-08-09T19:30:44.615Z,37.94
2022-08-09T19:34:52.613Z,38.15
2022-08-09T19:38:56.049Z,38.20
2022-08-09T19:42:58.096Z,38.71
2022-08-09T19:47:01.959Z,39.09
2022-08-09T19:51:04.607Z,39.73
2022-08-09T19:55:07.318Z,40.00
2022-08-09T19:59:39.786Z,40.32
2022-08-09T20:04:18.640Z,40.45
2022-08-09T20:07:59.422Z,41.10
2022-08-09T20:12:02.944Z,41.42
2022-08-09T20:16:34.154Z,41.82
2022-08-09T20:20:30.706Z,42.04
2022-08-09T20:24:34.241Z,42.08
2022-08-09T20:28:48.059Z,42.42
2022-08-09T20:32:52.651Z,42.85
2022-08-09T20:36:55.388Z,43.53
2022-08-09T20:40:57.466Z,43.90
2022-08-09T20:45:56.072Z,44.07
2022-08-09T20:49:23.238Z,44.87
2022-08-09T20:53:36.311Z,45.31
2022-08-09T20:58:08.249Z,45.35
2022-08-09T21:02:02.823Z,45.83
2022-08-09T21:06:05.039Z,46.36
2022-08-09T21:10:07.674Z,46.35
2022-08-09T21:14:10.016Z,47.09
2022-08-09T21:18:25.393Z,47.12
2022-08-09T21:22:38.451Z,47.58
2022-08-09T21:26:41.396Z,47.77
2022-08-09T21:30:44.278Z,48.14
2022-08-09T21:34:49.106Z,48.51
2022-08-09T21:38:58.012Z,49.33
2022-08-09T21:43:01.190Z,49.22
2022-08-09T21:47:07.722Z,50.12
2022-08-09T21:51:13.439Z,50.35
2022-08-09T21:55:20.651Z,50.48
2022-08-09T21:59:23.242Z,50.76
2022-08-09T22:03:27.887Z,51.00
2022-08-09T22:07:41.549Z,51.41
2022-08-09T22:12:18.165Z,51.73
2022-08-09T22:16:14.835Z,52.22
2022-08-09T22:20:21.964Z,52.70
2022-08-09T22:24:29.537Z,52.98
2022-08-09T22:28:33.219Z,52.93
2022-08-09T22:32:35.441Z,53.60
2022-08-09T22:36:46.108Z,53.45
2022-08-09T22:40:57.583Z,53.45
2022-08-09T22:48:12.116Z,53.72
2022-08-09T22:49:23.512Z,54.30
2022-08-09T22:53:25.629Z,54.59
2022-08-09T22:57:36.493Z,53.99
2022-08-09T23:01:41.642Z,54.36
2022-08-09T23:05:45.853Z,54.05
2022-08-09T23:09:48.097Z,54.70
2022-08-09T23:13:52.825Z,54.53
2022-08-09T23:17:55.849Z,54.75
2022-08-09T23:21:57.936Z,54.99
2022-08-09T23:26:00.794Z,55.62
2022-08-09T23:30:04.040Z,56.04
2022-08-09T23:34:06.148Z,56.15
2022-08-09T23:38:08.395Z,56.32
2022-08-09T23:42:10.427Z,56.80
2022-08-09T23:46:12.552Z,57.41
2022-08-09T23:50:14.568Z,57.39
2022-08-09T23:54:16.600Z,57.62
2022-08-09T23:58:27.540Z,58.09
